sensor_id;sensor_type;location;lat;lon;timestamp;P1;durP1;ratioP1;P2;durP2;ratioP2
11649;SDS011;5881;48.522;7.682;2023-03-11T00:00:30;0.60;;;0.60;;
11649;SDS011;5881;48.522;7.682;2023-03-11T00:02:58;0.70;;;0.70;;
11649;SDS011;5881;48.522;7.682;2023-03-11T00:05:26;0.60;;;0.60;;
11649;SDS011;5881;48.522;7.682;2023-03-11T00:07:54;0.70;;;0.70;;
11649;SDS011;5881;48.522;7.682;2023-03-11T00:10:22;0.60;;;0.60;;
11649;SDS011;5881;48.522;7.682;2023-03-11T00:12:50;0.60;;;0.60;;
11649;SDS011;5881;48.522;7.682;2023-03-11T00:15:16;0.60;;;0.60;;
11649;SDS011;5881;48.522;7.682;2023-03-11T00:17:42;0.70;;;0.70;;
11649;SDS011;5881;48.522;7.682;2023-03-11T00:20:15;0.60;;;0.60;;
11649;SDS011;5881;48.522;7.682;2023-03-11T00:22:52;0.60;;;0.60;;
11649;SDS011;5881;48.522;7.682;2023-03-11T00:25:19;0.60;;;0.60;;
11649;SDS011;5881;48.522;7.682;2023-03-11T00:27:46;0.60;;;0.60;;
11649;SDS011;5881;48.522;7.682;2023-03-11T00:30:12;0.50;;;0.50;;
11649;SDS011;5881;48.522;7.682;2023-03-11T00:32:38;0.60;;;0.60;;
11649;SDS011;5881;48.522;7.682;2023-03-11T00:35:05;0.60;;;0.60;;
11649;SDS011;5881;48.522;7.682;2023-03-11T00:37:31;0.60;;;0.60;;
11649;SDS011;5881;48.522;7.682;2023-03-11T00:39:58;0.50;;;0.50;;
11649;SDS011;5881;48.522;7.682;2023-03-11T00:42:24;0.60;;;0.60;;
11649;SDS011;5881;48.522;7.682;2023-03-11T00:44:49;0.70;;;0.70;;
11649;SDS011;5881;48.522;7.682;2023-03-11T00:47:15;0.80;;;0.80;;
11649;SDS011;5881;48.522;7.682;2023-03-11T00:49:41;0.60;;;0.60;;
11649;SDS011;5881;48.522;7.682;2023-03-11T00:52:07;0.60;;;0.60;;
11649;SDS011;5881;48.522;7.682;2023-03-11T00:54:33;0.67;;;0.67;;
11649;SDS011;5881;48.522;7.682;2023-03-11T00:56:59;0.63;;;0.63;;
11649;SDS011;5881;48.522;7.682;2023-03-11T00:59:24;0.60;;;0.60;;
11649;SDS011;5881;48.522;7.682;2023-03-11T01:01:50;0.57;;;0.57;;
11649;SDS011;5881;48.522;7.682;2023-03-11T01:04:15;0.50;;;0.50;;
11649;SDS011;5881;48.522;7.682;2023-03-11T01:06:41;0.63;;;0.63;;
11649;SDS011;5881;48.522;7.682;2023-03-11T01:09:07;0.60;;;0.60;;
11649;SDS011;5881;48.522;7.682;2023-03-11T01:11:32;0.60;;;0.60;;
11649;SDS011;5881;48.522;7.682;2023-03-11T01:13:58;0.60;;;0.60;;
11649;SDS011;5881;48.522;7.682;2023-03-11T01:16:24;0.60;;;0.60;;
11649;SDS011;5881;48.522;7.682;2023-03-11T01:18:49;0.60;;;0.60;;
11649;SDS011;5881;48.522;7.682;2023-03-11T01:21:15;0.60;;;0.60;;
11649;SDS011;5881;48.522;7.682;2023-03-11T01:23:41;0.70;;;0.70;;
11649;SDS011;5881;48.522;7.682;2023-03-11T01:26:07;0.70;;;0.70;;
11649;SDS011;5881;48.522;7.682;2023-03-11T01:28:32;0.60;;;0.60;;
11649;SDS011;5881;48.522;7.682;2023-03-11T01:30:58;0.60;;;0.60;;
11649;SDS011;5881;48.522;7.682;2023-03-11T01:33:24;0.60;;;0.60;;
11649;SDS011;5881;48.522;7.682;2023-03-11T01:35:50;0.70;;;0.70;;
11649;SDS011;5881;48.522;7.682;2023-03-11T01:38:16;0.73;;;0.73;;
11649;SDS011;5881;48.522;7.682;2023-03-11T01:40:43;0.60;;;0.60;;
11649;SDS011;5881;48.522;7.682;2023-03-11T01:48:37;0.67;;;0.67;;
11649;SDS011;5881;48.522;7.682;2023-03-11T01:51:04;0.70;;;0.70;;
11649;SDS011;5881;48.522;7.682;2023-03-11T01:53:32;0.70;;;0.70;;
11649;SDS011;5881;48.522;7.682;2023-03-11T01:55:58;0.67;;;0.67;;
11649;SDS011;5881;48.522;7.682;2023-03-11T01:58:26;0.70;;;0.70;;
11649;SDS011;5881;48.522;7.682;2023-03-11T02:00:54;0.73;;;0.73;;
11649;SDS011;5881;48.522;7.682;2023-03-11T02:03:31;0.63;;;0.63;;
11649;SDS011;5881;48.522;7.682;2023-03-11T02:06:03;0.70;;;0.70;;
11649;SDS011;5881;48.522;7.682;2023-03-11T02:08:32;0.60;;;0.60;;
11649;SDS011;5881;48.522;7.682;2023-03-11T02:10:58;0.60;;;0.60;;
11649;SDS011;5881;48.522;7.682;2023-03-11T02:13:26;0.60;;;0.60;;
11649;SDS011;5881;48.522;7.682;2023-03-11T02:15:52;0.60;;;0.60;;
11649;SDS011;5881;48.522;7.682;2023-03-11T02:18:18;0.60;;;0.60;;
11649;SDS011;5881;48.522;7.682;2023-03-11T02:23:13;0.80;;;0.80;;
11649;SDS011;5881;48.522;7.682;2023-03-11T02:25:47;0.70;;;0.70;;
11649;SDS011;5881;48.522;7.682;2023-03-11T02:28:19;0.60;;;0.60;;
11649;SDS011;5881;48.522;7.682;2023-03-11T02:30:46;0.70;;;0.70;;
11649;SDS011;5881;48.522;7.682;2023-03-11T02:33:13;0.60;;;0.60;;
11649;SDS011;5881;48.522;7.682;2023-03-11T02:35:39;0.60;;;0.60;;
11649;SDS011;5881;48.522;7.682;2023-03-11T02:38:05;0.60;;;0.60;;
11649;SDS011;5881;48.522;7.682;2023-03-11T02:40:38;0.60;;;0.60;;
11649;SDS011;5881;48.522;7.682;2023-03-11T02:43:10;0.63;;;0.63;;
11649;SDS011;5881;48.522;7.682;2023-03-11T02:45:39;0.70;;;0.70;;
11649;SDS011;5881;48.522;7.682;2023-03-11T02:48:07;0.60;;;0.60;;
11649;SDS011;5881;48.522;7.682;2023-03-11T02:50:34;0.67;;;0.67;;
11649;SDS011;5881;48.522;7.682;2023-03-11T02:53:01;0.70;;;0.70;;
11649;SDS011;5881;48.522;7.682;2023-03-11T02:55:28;0.60;;;0.60;;
11649;SDS011;5881;48.522;7.682;2023-03-11T02:57:54;0.93;;;0.93;;
11649;SDS011;5881;48.522;7.682;2023-03-11T03:00:19;0.70;;;0.70;;
11649;SDS011;5881;48.522;7.682;2023-03-11T03:02:45;1.67;;;1.67;;
11649;SDS011;5881;48.522;7.682;2023-03-11T03:05:15;0.60;;;0.60;;
11649;SDS011;5881;48.522;7.682;2023-03-11T03:07:41;0.70;;;0.70;;
11649;SDS011;5881;48.522;7.682;2023-03-11T03:10:07;0.80;;;0.80;;
11649;SDS011;5881;48.522;7.682;2023-03-11T03:12:33;0.70;;;0.70;;
11649;SDS011;5881;48.522;7.682;2023-03-11T03:14:59;0.70;;;0.70;;
11649;SDS011;5881;48.522;7.682;2023-03-11T03:17:24;0.63;;;0.63;;
11649;SDS011;5881;48.522;7.682;2023-03-11T03:19:50;0.70;;;0.70;;
11649;SDS011;5881;48.522;7.682;2023-03-11T03:22:15;0.70;;;0.70;;
11649;SDS011;5881;48.522;7.682;2023-03-11T03:24:41;0.70;;;0.70;;
11649;SDS011;5881;48.522;7.682;2023-03-11T03:27:06;0.70;;;0.70;;
11649;SDS011;5881;48.522;7.682;2023-03-11T03:29:32;0.80;;;0.80;;
11649;SDS011;5881;48.522;7.682;2023-03-11T03:31:58;0.80;;;0.80;;
11649;SDS011;5881;48.522;7.682;2023-03-11T03:34:23;0.73;;;0.73;;
11649;SDS011;5881;48.522;7.682;2023-03-11T03:36:49;0.80;;;0.80;;
11649;SDS011;5881;48.522;7.682;2023-03-11T03:39:14;0.60;;;0.60;;
11649;SDS011;5881;48.522;7.682;2023-03-11T03:41:42;0.70;;;0.70;;
11649;SDS011;5881;48.522;7.682;2023-03-11T03:44:08;0.70;;;0.70;;
11649;SDS011;5881;48.522;7.682;2023-03-11T03:46:33;0.70;;;0.70;;
11649;SDS011;5881;48.522;7.682;2023-03-11T03:48:59;0.70;;;0.70;;
11649;SDS011;5881;48.522;7.682;2023-03-11T03:51:25;0.73;;;0.73;;
11649;SDS011;5881;48.522;7.682;2023-03-11T03:53:50;0.70;;;0.70;;
11649;SDS011;5881;48.522;7.682;2023-03-11T03:56:16;0.70;;;0.70;;
11649;SDS011;5881;48.522;7.682;2023-03-11T03:58:42;0.70;;;0.70;;
11649;SDS011;5881;48.522;7.682;2023-03-11T04:01:08;0.73;;;0.73;;
11649;SDS011;5881;48.522;7.682;2023-03-11T04:03:35;0.70;;;0.70;;
11649;SDS011;5881;48.522;7.682;2023-03-11T04:08:49;0.80;;;0.80;;
11649;SDS011;5881;48.522;7.682;2023-03-11T04:11:16;0.80;;;0.80;;
11649;SDS011;5881;48.522;7.682;2023-03-11T04:13:42;0.80;;;0.80;;
11649;SDS011;5881;48.522;7.682;2023-03-11T04:16:08;0.80;;;0.80;;
11649;SDS011;5881;48.522;7.682;2023-03-11T04:18:38;0.90;;;0.90;;
11649;SDS011;5881;48.522;7.682;2023-03-11T04:21:04;0.70;;;0.70;;
11649;SDS011;5881;48.522;7.682;2023-03-11T04:23:30;0.80;;;0.80;;
11649;SDS011;5881;48.522;7.682;2023-03-11T04:25:56;0.90;;;0.90;;
11649;SDS011;5881;48.522;7.682;2023-03-11T04:28:21;0.80;;;0.80;;
11649;SDS011;5881;48.522;7.682;2023-03-11T04:30:47;0.70;;;0.70;;
11649;SDS011;5881;48.522;7.682;2023-03-11T04:33:13;0.80;;;0.80;;
11649;SDS011;5881;48.522;7.682;2023-03-11T04:35:38;0.80;;;0.80;;
11649;SDS011;5881;48.522;7.682;2023-03-11T04:38:04;1.10;;;1.10;;
11649;SDS011;5881;48.522;7.682;2023-03-11T04:40:29;0.90;;;0.90;;
11649;SDS011;5881;48.522;7.682;2023-03-11T04:42:55;0.80;;;0.80;;
11649;SDS011;5881;48.522;7.682;2023-03-11T04:45:20;0.80;;;0.80;;
11649;SDS011;5881;48.522;7.682;2023-03-11T04:47:47;0.70;;;0.70;;
11649;SDS011;5881;48.522;7.682;2023-03-11T04:50:13;0.70;;;0.70;;
11649;SDS011;5881;48.522;7.682;2023-03-11T04:52:39;0.80;;;0.80;;
11649;SDS011;5881;48.522;7.682;2023-03-11T04:55:05;0.80;;;0.80;;
11649;SDS011;5881;48.522;7.682;2023-03-11T04:57:31;0.70;;;0.70;;
11649;SDS011;5881;48.522;7.682;2023-03-11T04:59:57;0.70;;;0.70;;
11649;SDS011;5881;48.522;7.682;2023-03-11T05:02:22;0.70;;;0.70;;
11649;SDS011;5881;48.522;7.682;2023-03-11T05:04:48;0.70;;;0.70;;
11649;SDS011;5881;48.522;7.682;2023-03-11T05:07:13;0.87;;;0.87;;
11649;SDS011;5881;48.522;7.682;2023-03-11T05:09:39;0.70;;;0.70;;
11649;SDS011;5881;48.522;7.682;2023-03-11T05:12:05;0.70;;;0.70;;
11649;SDS011;5881;48.522;7.682;2023-03-11T05:14:31;0.70;;;0.70;;
11649;SDS011;5881;48.522;7.682;2023-03-11T05:16:56;0.80;;;0.80;;
11649;SDS011;5881;48.522;7.682;2023-03-11T05:19:22;0.70;;;0.70;;
11649;SDS011;5881;48.522;7.682;2023-03-11T05:21:58;0.80;;;0.80;;
11649;SDS011;5881;48.522;7.682;2023-03-11T05:24:25;0.83;;;0.83;;
11649;SDS011;5881;48.522;7.682;2023-03-11T05:26:52;0.80;;;0.80;;
11649;SDS011;5881;48.522;7.682;2023-03-11T05:29:17;0.80;;;0.80;;
11649;SDS011;5881;48.522;7.682;2023-03-11T05:31:43;0.80;;;0.80;;
11649;SDS011;5881;48.522;7.682;2023-03-11T05:34:09;0.87;;;0.87;;
11649;SDS011;5881;48.522;7.682;2023-03-11T05:36:35;0.80;;;0.80;;
11649;SDS011;5881;48.522;7.682;2023-03-11T05:39:01;0.70;;;0.70;;
11649;SDS011;5881;48.522;7.682;2023-03-11T05:41:26;0.80;;;0.80;;
11649;SDS011;5881;48.522;7.682;2023-03-11T05:43:52;0.80;;;0.80;;
11649;SDS011;5881;48.522;7.682;2023-03-11T05:46:17;0.80;;;0.80;;
11649;SDS011;5881;48.522;7.682;2023-03-11T05:48:44;0.80;;;0.80;;
11649;SDS011;5881;48.522;7.682;2023-03-11T05:51:10;0.77;;;0.77;;
11649;SDS011;5881;48.522;7.682;2023-03-11T05:53:36;0.80;;;0.80;;
11649;SDS011;5881;48.522;7.682;2023-03-11T05:56:03;0.80;;;0.80;;
11649;SDS011;5881;48.522;7.682;2023-03-11T05:58:29;0.70;;;0.70;;
11649;SDS011;5881;48.522;7.682;2023-03-11T06:00:56;0.70;;;0.70;;
11649;SDS011;5881;48.522;7.682;2023-03-11T06:03:24;0.80;;;0.80;;
11649;SDS011;5881;48.522;7.682;2023-03-11T06:05:50;0.70;;;0.70;;
11649;SDS011;5881;48.522;7.682;2023-03-11T06:08:17;0.77;;;0.77;;
11649;SDS011;5881;48.522;7.682;2023-03-11T06:10:43;0.80;;;0.80;;
11649;SDS011;5881;48.522;7.682;2023-03-11T06:13:09;0.70;;;0.70;;
11649;SDS011;5881;48.522;7.682;2023-03-11T06:15:36;0.80;;;0.80;;
11649;SDS011;5881;48.522;7.682;2023-03-11T06:18:02;0.80;;;0.80;;
11649;SDS011;5881;48.522;7.682;2023-03-11T06:20:28;0.77;;;0.77;;
11649;SDS011;5881;48.522;7.682;2023-03-11T06:22:54;0.80;;;0.80;;
11649;SDS011;5881;48.522;7.682;2023-03-11T06:25:20;0.80;;;0.80;;
11649;SDS011;5881;48.522;7.682;2023-03-11T06:27:51;0.70;;;0.70;;
11649;SDS011;5881;48.522;7.682;2023-03-11T06:30:17;0.80;;;0.80;;
11649;SDS011;5881;48.522;7.682;2023-03-11T06:32:44;0.80;;;0.80;;
11649;SDS011;5881;48.522;7.682;2023-03-11T06:35:11;0.80;;;0.80;;
11649;SDS011;5881;48.522;7.682;2023-03-11T06:37:37;0.60;;;0.60;;
11649;SDS011;5881;48.522;7.682;2023-03-11T06:40:03;0.90;;;0.90;;
11649;SDS011;5881;48.522;7.682;2023-03-11T06:42:31;0.80;;;0.80;;
11649;SDS011;5881;48.522;7.682;2023-03-11T06:44:57;0.80;;;0.80;;
11649;SDS011;5881;48.522;7.682;2023-03-11T06:47:22;0.70;;;0.70;;
11649;SDS011;5881;48.522;7.682;2023-03-11T06:49:49;3.80;;;2.20;;
11649;SDS011;5881;48.522;7.682;2023-03-11T06:52:15;0.70;;;0.70;;
11649;SDS011;5881;48.522;7.682;2023-03-11T06:54:41;3.13;;;3.00;;
11649;SDS011;5881;48.522;7.682;2023-03-11T06:57:07;0.70;;;0.70;;
11649;SDS011;5881;48.522;7.682;2023-03-11T06:59:33;0.60;;;0.60;;
11649;SDS011;5881;48.522;7.682;2023-03-11T07:01:59;0.70;;;0.70;;
11649;SDS011;5881;48.522;7.682;2023-03-11T07:04:24;0.70;;;0.70;;
11649;SDS011;5881;48.522;7.682;2023-03-11T07:06:50;0.70;;;0.70;;
11649;SDS011;5881;48.522;7.682;2023-03-11T07:09:16;0.60;;;0.60;;
11649;SDS011;5881;48.522;7.682;2023-03-11T07:11:41;0.70;;;0.70;;
11649;SDS011;5881;48.522;7.682;2023-03-11T07:14:07;0.60;;;0.60;;
11649;SDS011;5881;48.522;7.682;2023-03-11T07:16:33;0.70;;;0.70;;
11649;SDS011;5881;48.522;7.682;2023-03-11T07:18:59;0.70;;;0.70;;
11649;SDS011;5881;48.522;7.682;2023-03-11T07:21:27;0.60;;;0.60;;
11649;SDS011;5881;48.522;7.682;2023-03-11T07:23:55;0.67;;;0.67;;
11649;SDS011;5881;48.522;7.682;2023-03-11T07:26:23;0.70;;;0.70;;
11649;SDS011;5881;48.522;7.682;2023-03-11T07:28:49;0.70;;;0.70;;
11649;SDS011;5881;48.522;7.682;2023-03-11T07:31:20;0.70;;;0.70;;
11649;SDS011;5881;48.522;7.682;2023-03-11T07:33:48;0.60;;;0.60;;
11649;SDS011;5881;48.522;7.682;2023-03-11T07:36:15;0.60;;;0.60;;
11649;SDS011;5881;48.522;7.682;2023-03-11T07:38:42;0.60;;;0.60;;
11649;SDS011;5881;48.522;7.682;2023-03-11T07:41:09;0.67;;;0.67;;
11649;SDS011;5881;48.522;7.682;2023-03-11T07:43:36;0.50;;;0.50;;
11649;SDS011;5881;48.522;7.682;2023-03-11T07:48:30;0.60;;;0.60;;
11649;SDS011;5881;48.522;7.682;2023-03-11T07:51:02;0.50;;;0.50;;
11649;SDS011;5881;48.522;7.682;2023-03-11T07:53:29;0.52;;;0.52;;
11649;SDS011;5881;48.522;7.682;2023-03-11T07:55:56;0.40;;;0.40;;
11649;SDS011;5881;48.522;7.682;2023-03-11T07:58:22;0.43;;;0.43;;
11649;SDS011;5881;48.522;7.682;2023-03-11T08:00:48;0.32;;;0.32;;
11649;SDS011;5881;48.522;7.682;2023-03-11T08:03:14;0.30;;;0.30;;
11649;SDS011;5881;48.522;7.682;2023-03-11T08:05:39;0.30;;;0.30;;
11649;SDS011;5881;48.522;7.682;2023-03-11T08:08:05;0.20;;;0.20;;
11649;SDS011;5881;48.522;7.682;2023-03-11T08:10:30;0.20;;;0.20;;
11649;SDS011;5881;48.522;7.682;2023-03-11T08:12:56;0.30;;;0.30;;
11649;SDS011;5881;48.522;7.682;2023-03-11T08:15:21;0.40;;;0.40;;
11649;SDS011;5881;48.522;7.682;2023-03-11T08:17:47;0.20;;;0.20;;
11649;SDS011;5881;48.522;7.682;2023-03-11T08:20:13;0.10;;;0.10;;
11649;SDS011;5881;48.522;7.682;2023-03-11T08:22:38;0.20;;;0.20;;
11649;SDS011;5881;48.522;7.682;2023-03-11T08:25:04;0.10;;;0.10;;
11649;SDS011;5881;48.522;7.682;2023-03-11T08:27:30;0.10;;;0.10;;
11649;SDS011;5881;48.522;7.682;2023-03-11T08:29:56;0.20;;;0.20;;
11649;SDS011;5881;48.522;7.682;2023-03-11T08:32:22;0.10;;;0.10;;
11649;SDS011;5881;48.522;7.682;2023-03-11T08:34:47;6.03;;;0.95;;
11649;SDS011;5881;48.522;7.682;2023-03-11T08:37:13;0.22;;;0.22;;
11649;SDS011;5881;48.522;7.682;2023-03-11T08:39:39;0.20;;;0.20;;
11649;SDS011;5881;48.522;7.682;2023-03-11T08:42:04;0.20;;;0.20;;
11649;SDS011;5881;48.522;7.682;2023-03-11T08:44:30;0.10;;;0.10;;
11649;SDS011;5881;48.522;7.682;2023-03-11T08:46:55;0.20;;;0.20;;
11649;SDS011;5881;48.522;7.682;2023-03-11T08:49:22;0.20;;;0.20;;
11649;SDS011;5881;48.522;7.682;2023-03-11T08:51:48;0.17;;;0.17;;
11649;SDS011;5881;48.522;7.682;2023-03-11T08:54:14;0.13;;;0.13;;
11649;SDS011;5881;48.522;7.682;2023-03-11T08:56:39;0.20;;;0.20;;
11649;SDS011;5881;48.522;7.682;2023-03-11T08:59:05;0.30;;;0.30;;
11649;SDS011;5881;48.522;7.682;2023-03-11T09:01:32;0.20;;;0.20;;
11649;SDS011;5881;48.522;7.682;2023-03-11T09:03:58;0.10;;;0.10;;
11649;SDS011;5881;48.522;7.682;2023-03-11T09:06:23;1.20;;;0.77;;
11649;SDS011;5881;48.522;7.682;2023-03-11T09:08:49;0.10;;;0.10;;
11649;SDS011;5881;48.522;7.682;2023-03-11T09:11:15;0.20;;;0.20;;
11649;SDS011;5881;48.522;7.682;2023-03-11T09:13:42;0.15;;;0.15;;
11649;SDS011;5881;48.522;7.682;2023-03-11T09:16:12;0.10;;;0.10;;
11649;SDS011;5881;48.522;7.682;2023-03-11T09:18:44;0.20;;;0.20;;
11649;SDS011;5881;48.522;7.682;2023-03-11T09:21:11;0.10;;;0.10;;
11649;SDS011;5881;48.522;7.682;2023-03-11T09:23:37;0.10;;;0.10;;
11649;SDS011;5881;48.522;7.682;2023-03-11T09:26:03;0.17;;;0.17;;
11649;SDS011;5881;48.522;7.682;2023-03-11T09:28:29;0.73;;;0.73;;
11649;SDS011;5881;48.522;7.682;2023-03-11T09:30:55;0.13;;;0.13;;
11649;SDS011;5881;48.522;7.682;2023-03-11T09:33:21;0.13;;;0.13;;
11649;SDS011;5881;48.522;7.682;2023-03-11T09:35:47;0.00;;;0.00;;
11649;SDS011;5881;48.522;7.682;2023-03-11T09:38:13;0.70;;;0.50;;
11649;SDS011;5881;48.522;7.682;2023-03-11T09:40:58;0.20;;;0.20;;
11649;SDS011;5881;48.522;7.682;2023-03-11T09:52:10;0.17;;;0.17;;
11649;SDS011;5881;48.522;7.682;2023-03-11T09:55:01;0.20;;;0.20;;
11649;SDS011;5881;48.522;7.682;2023-03-11T09:57:28;0.20;;;0.20;;
11649;SDS011;5881;48.522;7.682;2023-03-11T09:59:57;0.30;;;0.30;;
11649;SDS011;5881;48.522;7.682;2023-03-11T10:02:25;0.20;;;0.20;;
11649;SDS011;5881;48.522;7.682;2023-03-11T10:04:56;0.20;;;0.20;;
11649;SDS011;5881;48.522;7.682;2023-03-11T10:07:41;0.25;;;0.25;;
11649;SDS011;5881;48.522;7.682;2023-03-11T10:10:12;0.20;;;0.20;;
11649;SDS011;5881;48.522;7.682;2023-03-11T10:26:35;0.10;;;0.10;;
11649;SDS011;5881;48.522;7.682;2023-03-11T10:29:11;0.10;;;0.10;;
11649;SDS011;5881;48.522;7.682;2023-03-11T10:32:05;0.10;;;0.10;;
11649;SDS011;5881;48.522;7.682;2023-03-11T10:34:54;0.10;;;0.10;;
11649;SDS011;5881;48.522;7.682;2023-03-11T10:37:30;0.10;;;0.10;;
11649;SDS011;5881;48.522;7.682;2023-03-11T10:40:09;0.10;;;0.10;;
11649;SDS011;5881;48.522;7.682;2023-03-11T10:42:59;0.10;;;0.10;;
11649;SDS011;5881;48.522;7.682;2023-03-11T10:45:29;0.13;;;0.13;;
11649;SDS011;5881;48.522;7.682;2023-03-11T10:48:01;0.20;;;0.20;;
11649;SDS011;5881;48.522;7.682;2023-03-11T10:50:27;0.10;;;0.10;;
11649;SDS011;5881;48.522;7.682;2023-03-11T10:55:34;0.10;;;0.10;;
11649;SDS011;5881;48.522;7.682;2023-03-11T10:58:04;0.20;;;0.20;;
11649;SDS011;5881;48.522;7.682;2023-03-11T11:00:32;0.10;;;0.10;;
11649;SDS011;5881;48.522;7.682;2023-03-11T11:02:57;0.40;;;0.40;;
11649;SDS011;5881;48.522;7.682;2023-03-11T11:05:27;0.10;;;0.10;;
11649;SDS011;5881;48.522;7.682;2023-03-11T11:08:01;0.10;;;0.10;;
11649;SDS011;5881;48.522;7.682;2023-03-11T11:10:47;0.10;;;0.10;;
11649;SDS011;5881;48.522;7.682;2023-03-11T11:13:17;0.10;;;0.10;;
11649;SDS011;5881;48.522;7.682;2023-03-11T11:15:51;0.10;;;0.10;;
11649;SDS011;5881;48.522;7.682;2023-03-11T11:18:35;0.10;;;0.10;;
11649;SDS011;5881;48.522;7.682;2023-03-11T11:21:10;0.20;;;0.20;;
11649;SDS011;5881;48.522;7.682;2023-03-11T11:23:47;0.10;;;0.10;;
11649;SDS011;5881;48.522;7.682;2023-03-11T11:26:26;0.10;;;0.10;;
11649;SDS011;5881;48.522;7.682;2023-03-11T11:29:05;0.10;;;0.10;;
11649;SDS011;5881;48.522;7.682;2023-03-11T11:31:41;0.20;;;0.20;;
11649;SDS011;5881;48.522;7.682;2023-03-11T11:34:23;0.10;;;0.10;;
11649;SDS011;5881;48.522;7.682;2023-03-11T11:36:59;0.10;;;0.10;;
11649;SDS011;5881;48.522;7.682;2023-03-11T11:39:29;0.20;;;0.20;;
11649;SDS011;5881;48.522;7.682;2023-03-11T11:42:15;0.17;;;0.17;;
11649;SDS011;5881;48.522;7.682;2023-03-11T11:44:48;0.10;;;0.10;;
11649;SDS011;5881;48.522;7.682;2023-03-11T11:49:56;0.20;;;0.20;;
11649;SDS011;5881;48.522;7.682;2023-03-11T11:52:32;0.20;;;0.20;;
11649;SDS011;5881;48.522;7.682;2023-03-11T11:55:06;0.10;;;0.10;;
11649;SDS011;5881;48.522;7.682;2023-03-11T11:57:50;0.10;;;0.10;;
11649;SDS011;5881;48.522;7.682;2023-03-11T12:06:03;0.20;;;0.20;;
11649;SDS011;5881;48.522;7.682;2023-03-11T12:08:38;0.10;;;0.10;;
11649;SDS011;5881;48.522;7.682;2023-03-11T12:11:13;0.10;;;0.10;;
11649;SDS011;5881;48.522;7.682;2023-03-11T12:13:52;0.20;;;0.20;;
11649;SDS011;5881;48.522;7.682;2023-03-11T12:19:28;0.20;;;0.20;;
11649;SDS011;5881;48.522;7.682;2023-03-11T12:24:53;0.40;;;0.40;;
11649;SDS011;5881;48.522;7.682;2023-03-11T12:30:50;0.32;;;0.32;;
11649;SDS011;5881;48.522;7.682;2023-03-11T12:36:19;0.20;;;0.20;;
11649;SDS011;5881;48.522;7.682;2023-03-11T12:38:49;0.28;;;0.28;;
11649;SDS011;5881;48.522;7.682;2023-03-11T12:44:00;0.30;;;0.30;;
11649;SDS011;5881;48.522;7.682;2023-03-11T12:49:24;0.22;;;0.22;;
11649;SDS011;5881;48.522;7.682;2023-03-11T12:54:30;0.35;;;0.35;;
11649;SDS011;5881;48.522;7.682;2023-03-11T12:57:04;0.32;;;0.32;;
11649;SDS011;5881;48.522;7.682;2023-03-11T13:02:50;0.30;;;0.30;;
11649;SDS011;5881;48.522;7.682;2023-03-11T13:08:12;0.30;;;0.30;;
11649;SDS011;5881;48.522;7.682;2023-03-11T13:10:42;0.30;;;0.30;;
11649;SDS011;5881;48.522;7.682;2023-03-11T13:15:55;0.20;;;0.20;;
11649;SDS011;5881;48.522;7.682;2023-03-11T13:18:28;0.30;;;0.30;;
11649;SDS011;5881;48.522;7.682;2023-03-11T13:20:57;0.20;;;0.20;;
11649;SDS011;5881;48.522;7.682;2023-03-11T13:23:36;0.30;;;0.30;;
11649;SDS011;5881;48.522;7.682;2023-03-11T13:45:28;0.30;;;0.30;;
11649;SDS011;5881;48.522;7.682;2023-03-11T13:48:00;0.30;;;0.30;;
11649;SDS011;5881;48.522;7.682;2023-03-11T13:50:47;0.30;;;0.30;;
11649;SDS011;5881;48.522;7.682;2023-03-11T13:53:18;0.30;;;0.30;;
11649;SDS011;5881;48.522;7.682;2023-03-11T13:55:49;0.30;;;0.30;;
11649;SDS011;5881;48.522;7.682;2023-03-11T13:58:22;0.20;;;0.20;;
11649;SDS011;5881;48.522;7.682;2023-03-11T14:00:53;0.30;;;0.30;;
11649;SDS011;5881;48.522;7.682;2023-03-11T14:03:21;0.30;;;0.30;;
11649;SDS011;5881;48.522;7.682;2023-03-11T14:05:54;0.30;;;0.30;;
11649;SDS011;5881;48.522;7.682;2023-03-11T14:08:33;0.30;;;0.30;;
11649;SDS011;5881;48.522;7.682;2023-03-11T14:13:39;0.30;;;0.30;;
11649;SDS011;5881;48.522;7.682;2023-03-11T14:16:06;0.30;;;0.30;;
11649;SDS011;5881;48.522;7.682;2023-03-11T14:18:42;0.20;;;0.20;;
11649;SDS011;5881;48.522;7.682;2023-03-11T14:21:20;0.30;;;0.30;;
11649;SDS011;5881;48.522;7.682;2023-03-11T14:23:50;0.30;;;0.30;;
11649;SDS011;5881;48.522;7.682;2023-03-11T14:26:21;0.30;;;0.30;;
11649;SDS011;5881;48.522;7.682;2023-03-11T14:28:51;0.32;;;0.32;;
11649;SDS011;5881;48.522;7.682;2023-03-11T14:31:23;0.40;;;0.40;;
11649;SDS011;5881;48.522;7.682;2023-03-11T14:33:57;0.30;;;0.30;;
11649;SDS011;5881;48.522;7.682;2023-03-11T14:36:51;0.30;;;0.30;;
11649;SDS011;5881;48.522;7.682;2023-03-11T14:39:33;0.30;;;0.30;;
11649;SDS011;5881;48.522;7.682;2023-03-11T14:42:09;0.30;;;0.30;;
11649;SDS011;5881;48.522;7.682;2023-03-11T14:44:46;0.30;;;0.30;;
11649;SDS011;5881;48.522;7.682;2023-03-11T14:49:56;0.25;;;0.25;;
11649;SDS011;5881;48.522;7.682;2023-03-11T14:52:45;0.30;;;0.30;;
11649;SDS011;5881;48.522;7.682;2023-03-11T14:55:23;0.30;;;0.30;;
11649;SDS011;5881;48.522;7.682;2023-03-11T14:57:55;0.20;;;0.20;;
11649;SDS011;5881;48.522;7.682;2023-03-11T15:00:28;0.20;;;0.20;;
11649;SDS011;5881;48.522;7.682;2023-03-11T15:03:04;0.30;;;0.30;;
11649;SDS011;5881;48.522;7.682;2023-03-11T15:08:12;0.30;;;0.30;;
11649;SDS011;5881;48.522;7.682;2023-03-11T15:11:01;0.30;;;0.30;;
11649;SDS011;5881;48.522;7.682;2023-03-11T15:13:37;0.35;;;0.35;;
11649;SDS011;5881;48.522;7.682;2023-03-11T15:16:05;0.30;;;0.30;;
11649;SDS011;5881;48.522;7.682;2023-03-11T15:18:45;0.22;;;0.22;;
11649;SDS011;5881;48.522;7.682;2023-03-11T15:21:15;0.30;;;0.30;;
11649;SDS011;5881;48.522;7.682;2023-03-11T15:23:46;0.30;;;0.30;;
11649;SDS011;5881;48.522;7.682;2023-03-11T15:26:28;0.20;;;0.20;;
11649;SDS011;5881;48.522;7.682;2023-03-11T15:28:57;0.20;;;0.20;;
11649;SDS011;5881;48.522;7.682;2023-03-11T15:31:31;0.30;;;0.30;;
11649;SDS011;5881;48.522;7.682;2023-03-11T15:34:10;0.28;;;0.28;;
11649;SDS011;5881;48.522;7.682;2023-03-11T15:36:37;0.30;;;0.30;;
11649;SDS011;5881;48.522;7.682;2023-03-11T15:39:20;0.20;;;0.20;;
11649;SDS011;5881;48.522;7.682;2023-03-11T15:44:37;0.40;;;0.40;;
11649;SDS011;5881;48.522;7.682;2023-03-11T15:47:29;0.20;;;0.20;;
11649;SDS011;5881;48.522;7.682;2023-03-11T15:49:55;0.43;;;0.43;;
11649;SDS011;5881;48.522;7.682;2023-03-11T15:52:20;0.25;;;0.25;;
11649;SDS011;5881;48.522;7.682;2023-03-11T15:54:46;0.30;;;0.30;;
11649;SDS011;5881;48.522;7.682;2023-03-11T15:57:21;0.30;;;0.30;;
11649;SDS011;5881;48.522;7.682;2023-03-11T15:59:50;0.20;;;0.20;;
11649;SDS011;5881;48.522;7.682;2023-03-11T16:02:24;0.30;;;0.30;;
11649;SDS011;5881;48.522;7.682;2023-03-11T16:04:52;0.35;;;0.35;;
11649;SDS011;5881;48.522;7.682;2023-03-11T16:07:18;0.30;;;0.30;;
11649;SDS011;5881;48.522;7.682;2023-03-11T16:09:44;0.30;;;0.30;;
11649;SDS011;5881;48.522;7.682;2023-03-11T16:12:20;0.30;;;0.30;;
11649;SDS011;5881;48.522;7.682;2023-03-11T16:14:47;1.15;;;1.15;;
11649;SDS011;5881;48.522;7.682;2023-03-11T16:17:14;0.30;;;0.30;;
11649;SDS011;5881;48.522;7.682;2023-03-11T16:19:44;0.20;;;0.20;;
11649;SDS011;5881;48.522;7.682;2023-03-11T16:22:14;0.30;;;0.30;;
11649;SDS011;5881;48.522;7.682;2023-03-11T16:24:43;0.40;;;0.40;;
11649;SDS011;5881;48.522;7.682;2023-03-11T16:27:13;0.30;;;0.30;;
11649;SDS011;5881;48.522;7.682;2023-03-11T16:29:41;0.30;;;0.30;;
11649;SDS011;5881;48.522;7.682;2023-03-11T16:32:08;0.30;;;0.30;;
11649;SDS011;5881;48.522;7.682;2023-03-11T16:34:34;0.30;;;0.30;;
11649;SDS011;5881;48.522;7.682;2023-03-11T16:37:01;0.30;;;0.30;;
11649;SDS011;5881;48.522;7.682;2023-03-11T16:39:26;0.30;;;0.30;;
11649;SDS011;5881;48.522;7.682;2023-03-11T16:41:52;0.30;;;0.30;;
11649;SDS011;5881;48.522;7.682;2023-03-11T16:44:18;0.20;;;0.20;;
11649;SDS011;5881;48.522;7.682;2023-03-11T16:46:43;0.38;;;0.38;;
11649;SDS011;5881;48.522;7.682;2023-03-11T16:49:09;0.40;;;0.40;;
11649;SDS011;5881;48.522;7.682;2023-03-11T16:51:34;0.30;;;0.30;;
11649;SDS011;5881;48.522;7.682;2023-03-11T16:54:00;0.32;;;0.32;;
11649;SDS011;5881;48.522;7.682;2023-03-11T16:56:26;0.30;;;0.30;;